Westmoreland, New Hampshire
Current Conditions -  °F | °C
As of 1:15 AM on Thursday 23 Oct 2014 (Local Time) from KEEN Reporting Station
Overcast Overcast  
Wind Chill: 43°   Ceiling: 2000
Heat Index: 48°   Visibility: 10mi
Dew Point: 39°   Wind: 14mph
Humidity: 71%   Direction: 10°N
Pressure: 29.88"   Gusts: 18mph
Location:  42.96°N, 72.44°W
Report Text: KEEN 230515Z AUTO 01012G16KT 10SM BKN020 OVC026 09/04 A2988 RMK AO1 P0003
Loading
Personal Weather Stations






























Interactive Weather Map
Tropical Storm Tracking
New forecast layout! Learn more

10-Day Weather Forecast

Advertisements
Track Severe Weather on mobile